sensor_id;sensor_type;location;lat;lon;timestamp;P1;durP1;ratioP1;P2;durP2;ratioP2
68089;SDS011;54880;50.986;6.990;2023-04-15T00:01:51;8.83;;;3.40;;
68089;SDS011;54880;50.986;6.990;2023-04-15T00:04:16;10.93;;;4.40;;
68089;SDS011;54880;50.986;6.990;2023-04-15T00:06:42;11.32;;;3.95;;
68089;SDS011;54880;50.986;6.990;2023-04-15T00:09:07;10.97;;;4.00;;
68089;SDS011;54880;50.986;6.990;2023-04-15T00:11:32;11.67;;;3.70;;
68089;SDS011;54880;50.986;6.990;2023-04-15T00:13:58;9.57;;;4.03;;
68089;SDS011;54880;50.986;6.990;2023-04-15T00:16:23;10.43;;;3.60;;
68089;SDS011;54880;50.986;6.990;2023-04-15T00:18:48;9.57;;;3.50;;
68089;SDS011;54880;50.986;6.990;2023-04-15T00:21:13;13.33;;;4.00;;
68089;SDS011;54880;50.986;6.990;2023-04-15T00:23:39;8.17;;;3.17;;
68089;SDS011;54880;50.986;6.990;2023-04-15T00:26:04;8.23;;;3.43;;
68089;SDS011;54880;50.986;6.990;2023-04-15T00:28:29;9.67;;;3.73;;
68089;SDS011;54880;50.986;6.990;2023-04-15T00:30:55;7.82;;;4.07;;
68089;SDS011;54880;50.986;6.990;2023-04-15T00:33:21;9.73;;;3.95;;
68089;SDS011;54880;50.986;6.990;2023-04-15T00:35:46;11.23;;;3.60;;
68089;SDS011;54880;50.986;6.990;2023-04-15T00:38:12;9.20;;;3.40;;
68089;SDS011;54880;50.986;6.990;2023-04-15T00:40:37;8.53;;;3.53;;
68089;SDS011;54880;50.986;6.990;2023-04-15T00:43:03;9.37;;;3.63;;
68089;SDS011;54880;50.986;6.990;2023-04-15T00:45:28;7.40;;;3.20;;
68089;SDS011;54880;50.986;6.990;2023-04-15T00:47:54;11.45;;;3.35;;
68089;SDS011;54880;50.986;6.990;2023-04-15T00:50:19;11.73;;;3.37;;
68089;SDS011;54880;50.986;6.990;2023-04-15T00:52:45;8.70;;;3.17;;
68089;SDS011;54880;50.986;6.990;2023-04-15T00:55:11;8.40;;;3.85;;
68089;SDS011;54880;50.986;6.990;2023-04-15T00:57:36;9.87;;;3.33;;
68089;SDS011;54880;50.986;6.990;2023-04-15T01:00:02;11.73;;;3.20;;
68089;SDS011;54880;50.986;6.990;2023-04-15T01:02:29;12.50;;;3.63;;
68089;SDS011;54880;50.986;6.990;2023-04-15T01:04:55;11.30;;;3.83;;
68089;SDS011;54880;50.986;6.990;2023-04-15T01:07:21;10.70;;;3.50;;
68089;SDS011;54880;50.986;6.990;2023-04-15T01:09:46;9.37;;;3.23;;
68089;SDS011;54880;50.986;6.990;2023-04-15T01:12:13;9.70;;;3.80;;
68089;SDS011;54880;50.986;6.990;2023-04-15T01:14:39;9.10;;;3.78;;
68089;SDS011;54880;50.986;6.990;2023-04-15T01:17:05;11.30;;;3.30;;
68089;SDS011;54880;50.986;6.990;2023-04-15T01:19:31;11.20;;;3.50;;
68089;SDS011;54880;50.986;6.990;2023-04-15T01:21:56;10.93;;;3.75;;
68089;SDS011;54880;50.986;6.990;2023-04-15T01:24:22;7.60;;;3.20;;
68089;SDS011;54880;50.986;6.990;2023-04-15T01:26:48;9.25;;;3.65;;
68089;SDS011;54880;50.986;6.990;2023-04-15T01:29:14;8.48;;;3.40;;
68089;SDS011;54880;50.986;6.990;2023-04-15T01:31:39;8.43;;;3.40;;
68089;SDS011;54880;50.986;6.990;2023-04-15T01:34:04;11.87;;;3.40;;
68089;SDS011;54880;50.986;6.990;2023-04-15T01:36:30;8.27;;;3.33;;
68089;SDS011;54880;50.986;6.990;2023-04-15T01:38:55;8.03;;;3.37;;
68089;SDS011;54880;50.986;6.990;2023-04-15T01:41:24;8.40;;;3.47;;
68089;SDS011;54880;50.986;6.990;2023-04-15T01:43:50;11.05;;;3.60;;
68089;SDS011;54880;50.986;6.990;2023-04-15T01:46:16;8.20;;;3.50;;
68089;SDS011;54880;50.986;6.990;2023-04-15T01:48:41;9.77;;;3.37;;
68089;SDS011;54880;50.986;6.990;2023-04-15T01:51:07;9.60;;;3.30;;
68089;SDS011;54880;50.986;6.990;2023-04-15T01:53:32;9.77;;;4.03;;
68089;SDS011;54880;50.986;6.990;2023-04-15T01:55:58;10.30;;;3.15;;
68089;SDS011;54880;50.986;6.990;2023-04-15T01:58:23;10.83;;;3.80;;
68089;SDS011;54880;50.986;6.990;2023-04-15T02:00:49;11.37;;;3.77;;
68089;SDS011;54880;50.986;6.990;2023-04-15T02:03:14;10.20;;;3.57;;
68089;SDS011;54880;50.986;6.990;2023-04-15T02:05:39;11.63;;;3.57;;
68089;SDS011;54880;50.986;6.990;2023-04-15T02:08:04;10.53;;;3.87;;
68089;SDS011;54880;50.986;6.990;2023-04-15T02:10:30;14.00;;;4.00;;
68089;SDS011;54880;50.986;6.990;2023-04-15T02:12:55;12.07;;;4.13;;
68089;SDS011;54880;50.986;6.990;2023-04-15T02:15:21;11.20;;;3.50;;
68089;SDS011;54880;50.986;6.990;2023-04-15T02:17:48;9.68;;;3.95;;
68089;SDS011;54880;50.986;6.990;2023-04-15T02:20:17;9.23;;;3.90;;
68089;SDS011;54880;50.986;6.990;2023-04-15T02:22:42;10.27;;;4.13;;
68089;SDS011;54880;50.986;6.990;2023-04-15T02:25:07;11.95;;;3.97;;
68089;SDS011;54880;50.986;6.990;2023-04-15T02:27:34;11.23;;;4.28;;
68089;SDS011;54880;50.986;6.990;2023-04-15T02:29:59;10.10;;;3.78;;
68089;SDS011;54880;50.986;6.990;2023-04-15T02:32:25;9.30;;;3.77;;
68089;SDS011;54880;50.986;6.990;2023-04-15T02:34:52;12.63;;;4.23;;
68089;SDS011;54880;50.986;6.990;2023-04-15T02:37:18;10.32;;;4.05;;
68089;SDS011;54880;50.986;6.990;2023-04-15T02:39:44;10.03;;;3.90;;
68089;SDS011;54880;50.986;6.990;2023-04-15T02:42:09;9.98;;;4.00;;
68089;SDS011;54880;50.986;6.990;2023-04-15T02:44:35;15.67;;;4.53;;
68089;SDS011;54880;50.986;6.990;2023-04-15T02:47:03;12.63;;;3.65;;
68089;SDS011;54880;50.986;6.990;2023-04-15T02:49:30;8.70;;;3.50;;
68089;SDS011;54880;50.986;6.990;2023-04-15T02:51:55;8.60;;;3.20;;
68089;SDS011;54880;50.986;6.990;2023-04-15T02:54:22;11.93;;;3.90;;
68089;SDS011;54880;50.986;6.990;2023-04-15T02:56:48;11.45;;;4.10;;
68089;SDS011;54880;50.986;6.990;2023-04-15T02:59:14;8.95;;;3.83;;
68089;SDS011;54880;50.986;6.990;2023-04-15T03:01:39;9.53;;;4.10;;
68089;SDS011;54880;50.986;6.990;2023-04-15T03:04:04;12.10;;;3.87;;
68089;SDS011;54880;50.986;6.990;2023-04-15T03:06:31;11.48;;;3.53;;
68089;SDS011;54880;50.986;6.990;2023-04-15T03:08:57;11.70;;;4.47;;
68089;SDS011;54880;50.986;6.990;2023-04-15T03:11:24;11.25;;;3.50;;
68089;SDS011;54880;50.986;6.990;2023-04-15T03:13:51;11.83;;;4.27;;
68089;SDS011;54880;50.986;6.990;2023-04-15T03:16:25;11.07;;;4.38;;
68089;SDS011;54880;50.986;6.990;2023-04-15T03:18:51;9.27;;;4.30;;
68089;SDS011;54880;50.986;6.990;2023-04-15T03:21:18;11.40;;;4.85;;
68089;SDS011;54880;50.986;6.990;2023-04-15T03:23:47;10.82;;;4.30;;
68089;SDS011;54880;50.986;6.990;2023-04-15T03:26:22;13.05;;;4.63;;
68089;SDS011;54880;50.986;6.990;2023-04-15T03:28:48;13.13;;;4.63;;
68089;SDS011;54880;50.986;6.990;2023-04-15T03:31:15;12.20;;;4.47;;
68089;SDS011;54880;50.986;6.990;2023-04-15T03:33:41;9.93;;;4.27;;
68089;SDS011;54880;50.986;6.990;2023-04-15T03:36:06;13.90;;;4.97;;
68089;SDS011;54880;50.986;6.990;2023-04-15T03:38:31;12.07;;;4.60;;
68089;SDS011;54880;50.986;6.990;2023-04-15T03:40:56;10.70;;;4.33;;
68089;SDS011;54880;50.986;6.990;2023-04-15T03:43:22;16.13;;;5.03;;
68089;SDS011;54880;50.986;6.990;2023-04-15T03:45:47;12.97;;;5.07;;
68089;SDS011;54880;50.986;6.990;2023-04-15T03:48:12;11.90;;;4.37;;
68089;SDS011;54880;50.986;6.990;2023-04-15T03:50:38;12.23;;;4.90;;
68089;SDS011;54880;50.986;6.990;2023-04-15T03:53:03;13.57;;;4.77;;
68089;SDS011;54880;50.986;6.990;2023-04-15T03:55:28;11.00;;;4.83;;
68089;SDS011;54880;50.986;6.990;2023-04-15T03:57:53;13.07;;;4.63;;
68089;SDS011;54880;50.986;6.990;2023-04-15T04:00:19;11.37;;;4.90;;
68089;SDS011;54880;50.986;6.990;2023-04-15T04:02:44;11.57;;;4.63;;
68089;SDS011;54880;50.986;6.990;2023-04-15T04:05:10;15.97;;;4.87;;
68089;SDS011;54880;50.986;6.990;2023-04-15T04:07:35;10.37;;;5.00;;
68089;SDS011;54880;50.986;6.990;2023-04-15T04:10:01;12.27;;;4.23;;
68089;SDS011;54880;50.986;6.990;2023-04-15T04:12:27;11.93;;;3.92;;
68089;SDS011;54880;50.986;6.990;2023-04-15T04:14:53;10.87;;;4.00;;
68089;SDS011;54880;50.986;6.990;2023-04-15T04:17:18;13.60;;;4.30;;
68089;SDS011;54880;50.986;6.990;2023-04-15T04:19:43;11.57;;;4.23;;
68089;SDS011;54880;50.986;6.990;2023-04-15T04:22:08;9.98;;;4.43;;
68089;SDS011;54880;50.986;6.990;2023-04-15T04:24:34;10.15;;;4.22;;
68089;SDS011;54880;50.986;6.990;2023-04-15T04:26:59;10.60;;;4.60;;
68089;SDS011;54880;50.986;6.990;2023-04-15T04:29:24;14.48;;;4.85;;
68089;SDS011;54880;50.986;6.990;2023-04-15T04:31:50;9.27;;;3.73;;
68089;SDS011;54880;50.986;6.990;2023-04-15T04:34:15;10.70;;;4.43;;
68089;SDS011;54880;50.986;6.990;2023-04-15T04:36:40;11.67;;;5.20;;
68089;SDS011;54880;50.986;6.990;2023-04-15T04:39:06;11.73;;;4.00;;
68089;SDS011;54880;50.986;6.990;2023-04-15T04:41:32;9.75;;;3.60;;
68089;SDS011;54880;50.986;6.990;2023-04-15T04:43:57;12.50;;;4.20;;
68089;SDS011;54880;50.986;6.990;2023-04-15T04:46:22;9.07;;;4.13;;
68089;SDS011;54880;50.986;6.990;2023-04-15T04:48:48;9.97;;;4.53;;
68089;SDS011;54880;50.986;6.990;2023-04-15T04:51:13;12.47;;;4.30;;
68089;SDS011;54880;50.986;6.990;2023-04-15T04:53:38;11.57;;;4.07;;
68089;SDS011;54880;50.986;6.990;2023-04-15T04:56:03;10.93;;;4.07;;
68089;SDS011;54880;50.986;6.990;2023-04-15T04:58:29;10.77;;;4.57;;
68089;SDS011;54880;50.986;6.990;2023-04-15T05:00:54;9.77;;;4.23;;
68089;SDS011;54880;50.986;6.990;2023-04-15T05:03:20;10.07;;;4.63;;
68089;SDS011;54880;50.986;6.990;2023-04-15T05:05:45;10.87;;;4.53;;
68089;SDS011;54880;50.986;6.990;2023-04-15T05:08:11;10.40;;;4.50;;
68089;SDS011;54880;50.986;6.990;2023-04-15T05:10:36;12.23;;;4.87;;
68089;SDS011;54880;50.986;6.990;2023-04-15T05:13:01;12.23;;;5.03;;
68089;SDS011;54880;50.986;6.990;2023-04-15T05:15:27;9.43;;;4.40;;
68089;SDS011;54880;50.986;6.990;2023-04-15T05:17:52;13.43;;;4.87;;
68089;SDS011;54880;50.986;6.990;2023-04-15T05:20:17;9.03;;;4.67;;
68089;SDS011;54880;50.986;6.990;2023-04-15T05:22:42;8.87;;;3.70;;
68089;SDS011;54880;50.986;6.990;2023-04-15T05:25:08;11.03;;;4.13;;
68089;SDS011;54880;50.986;6.990;2023-04-15T05:27:33;11.95;;;4.65;;
68089;SDS011;54880;50.986;6.990;2023-04-15T05:29:59;9.23;;;4.03;;
68089;SDS011;54880;50.986;6.990;2023-04-15T05:32:24;9.83;;;4.37;;
68089;SDS011;54880;50.986;6.990;2023-04-15T05:34:49;9.30;;;4.13;;
68089;SDS011;54880;50.986;6.990;2023-04-15T05:37:15;11.57;;;4.20;;
68089;SDS011;54880;50.986;6.990;2023-04-15T05:39:40;14.30;;;4.97;;
68089;SDS011;54880;50.986;6.990;2023-04-15T05:42:06;14.15;;;4.65;;
68089;SDS011;54880;50.986;6.990;2023-04-15T05:44:31;13.43;;;5.40;;
68089;SDS011;54880;50.986;6.990;2023-04-15T05:46:56;13.10;;;5.17;;
68089;SDS011;54880;50.986;6.990;2023-04-15T05:49:22;11.50;;;4.80;;
68089;SDS011;54880;50.986;6.990;2023-04-15T05:51:47;9.93;;;4.80;;
68089;SDS011;54880;50.986;6.990;2023-04-15T05:54:12;11.43;;;5.10;;
68089;SDS011;54880;50.986;6.990;2023-04-15T05:56:37;10.77;;;4.23;;
68089;SDS011;54880;50.986;6.990;2023-04-15T05:59:03;12.47;;;4.67;;
68089;SDS011;54880;50.986;6.990;2023-04-15T06:01:28;14.50;;;4.40;;
68089;SDS011;54880;50.986;6.990;2023-04-15T06:03:54;10.50;;;4.38;;
68089;SDS011;54880;50.986;6.990;2023-04-15T06:06:19;13.00;;;4.90;;
68089;SDS011;54880;50.986;6.990;2023-04-15T06:08:45;12.43;;;4.93;;
68089;SDS011;54880;50.986;6.990;2023-04-15T06:11:10;9.57;;;4.60;;
68089;SDS011;54880;50.986;6.990;2023-04-15T06:13:35;12.17;;;4.30;;
68089;SDS011;54880;50.986;6.990;2023-04-15T06:16:01;12.23;;;5.50;;
68089;SDS011;54880;50.986;6.990;2023-04-15T06:18:26;13.00;;;5.43;;
68089;SDS011;54880;50.986;6.990;2023-04-15T06:20:51;11.80;;;5.90;;
68089;SDS011;54880;50.986;6.990;2023-04-15T06:23:16;11.60;;;5.10;;
68089;SDS011;54880;50.986;6.990;2023-04-15T06:25:42;12.07;;;5.20;;
68089;SDS011;54880;50.986;6.990;2023-04-15T06:28:07;12.20;;;5.47;;
68089;SDS011;54880;50.986;6.990;2023-04-15T06:30:33;12.07;;;5.85;;
68089;SDS011;54880;50.986;6.990;2023-04-15T06:32:58;12.47;;;5.57;;
68089;SDS011;54880;50.986;6.990;2023-04-15T06:35:23;11.93;;;5.67;;
68089;SDS011;54880;50.986;6.990;2023-04-15T06:37:49;13.37;;;5.60;;
68089;SDS011;54880;50.986;6.990;2023-04-15T06:40:14;12.30;;;6.27;;
68089;SDS011;54880;50.986;6.990;2023-04-15T06:42:39;14.20;;;6.87;;
68089;SDS011;54880;50.986;6.990;2023-04-15T06:45:06;12.30;;;6.47;;
68089;SDS011;54880;50.986;6.990;2023-04-15T06:47:32;13.52;;;6.78;;
68089;SDS011;54880;50.986;6.990;2023-04-15T06:49:58;11.80;;;6.60;;
68089;SDS011;54880;50.986;6.990;2023-04-15T06:52:23;13.37;;;6.77;;
68089;SDS011;54880;50.986;6.990;2023-04-15T06:54:48;12.53;;;6.47;;
68089;SDS011;54880;50.986;6.990;2023-04-15T06:57:14;13.13;;;6.80;;
68089;SDS011;54880;50.986;6.990;2023-04-15T06:59:39;13.93;;;7.70;;
68089;SDS011;54880;50.986;6.990;2023-04-15T07:02:04;14.00;;;7.00;;
68089;SDS011;54880;50.986;6.990;2023-04-15T07:04:30;16.45;;;8.55;;
68089;SDS011;54880;50.986;6.990;2023-04-15T07:06:55;19.50;;;9.27;;
68089;SDS011;54880;50.986;6.990;2023-04-15T07:09:24;14.10;;;7.67;;
68089;SDS011;54880;50.986;6.990;2023-04-15T07:11:49;15.25;;;7.40;;
68089;SDS011;54880;50.986;6.990;2023-04-15T07:14:15;12.40;;;6.70;;
68089;SDS011;54880;50.986;6.990;2023-04-15T07:16:40;11.23;;;6.15;;
68089;SDS011;54880;50.986;6.990;2023-04-15T07:19:06;13.10;;;6.17;;
68089;SDS011;54880;50.986;6.990;2023-04-15T07:21:31;12.47;;;5.70;;
68089;SDS011;54880;50.986;6.990;2023-04-15T07:23:57;11.53;;;6.13;;
68089;SDS011;54880;50.986;6.990;2023-04-15T07:26:22;12.63;;;6.00;;
68089;SDS011;54880;50.986;6.990;2023-04-15T07:28:48;11.98;;;5.97;;
68089;SDS011;54880;50.986;6.990;2023-04-15T07:31:14;12.60;;;5.90;;
68089;SDS011;54880;50.986;6.990;2023-04-15T07:33:40;11.77;;;5.50;;
68089;SDS011;54880;50.986;6.990;2023-04-15T07:36:05;10.30;;;5.17;;
68089;SDS011;54880;50.986;6.990;2023-04-15T07:38:31;11.13;;;4.93;;
68089;SDS011;54880;50.986;6.990;2023-04-15T07:40:57;11.90;;;4.82;;
68089;SDS011;54880;50.986;6.990;2023-04-15T07:43:22;10.40;;;5.60;;
68089;SDS011;54880;50.986;6.990;2023-04-15T07:45:47;10.27;;;5.13;;
68089;SDS011;54880;50.986;6.990;2023-04-15T07:48:12;10.93;;;5.17;;
68089;SDS011;54880;50.986;6.990;2023-04-15T07:50:38;12.33;;;5.10;;
68089;SDS011;54880;50.986;6.990;2023-04-15T07:53:03;10.53;;;4.17;;
68089;SDS011;54880;50.986;6.990;2023-04-15T07:55:29;10.50;;;4.20;;
68089;SDS011;54880;50.986;6.990;2023-04-15T07:57:55;8.17;;;3.63;;
68089;SDS011;54880;50.986;6.990;2023-04-15T08:00:20;7.07;;;2.47;;
68089;SDS011;54880;50.986;6.990;2023-04-15T08:02:46;6.57;;;3.03;;
68089;SDS011;54880;50.986;6.990;2023-04-15T08:05:12;7.75;;;2.95;;
68089;SDS011;54880;50.986;6.990;2023-04-15T08:07:38;8.77;;;2.70;;
68089;SDS011;54880;50.986;6.990;2023-04-15T08:10:03;8.43;;;2.50;;
68089;SDS011;54880;50.986;6.990;2023-04-15T08:12:29;7.20;;;2.60;;
68089;SDS011;54880;50.986;6.990;2023-04-15T08:14:55;5.35;;;1.98;;
68089;SDS011;54880;50.986;6.990;2023-04-15T08:17:21;5.97;;;2.10;;
68089;SDS011;54880;50.986;6.990;2023-04-15T08:19:46;5.90;;;1.80;;
68089;SDS011;54880;50.986;6.990;2023-04-15T08:22:12;6.60;;;1.80;;
68089;SDS011;54880;50.986;6.990;2023-04-15T08:24:37;7.67;;;2.23;;
68089;SDS011;54880;50.986;6.990;2023-04-15T08:27:03;7.07;;;1.90;;
68089;SDS011;54880;50.986;6.990;2023-04-15T08:29:29;6.32;;;2.75;;
68089;SDS011;54880;50.986;6.990;2023-04-15T08:31:55;7.80;;;1.80;;
68089;SDS011;54880;50.986;6.990;2023-04-15T08:34:20;5.43;;;1.97;;
68089;SDS011;54880;50.986;6.990;2023-04-15T08:36:45;6.33;;;2.00;;
68089;SDS011;54880;50.986;6.990;2023-04-15T08:39:11;5.97;;;1.83;;
68089;SDS011;54880;50.986;6.990;2023-04-15T08:41:40;6.57;;;1.90;;
68089;SDS011;54880;50.986;6.990;2023-04-15T08:44:09;5.67;;;1.87;;
68089;SDS011;54880;50.986;6.990;2023-04-15T08:46:34;4.82;;;1.80;;
68089;SDS011;54880;50.986;6.990;2023-04-15T08:49:02;9.00;;;1.73;;
68089;SDS011;54880;50.986;6.990;2023-04-15T08:51:28;4.75;;;1.60;;
68089;SDS011;54880;50.986;6.990;2023-04-15T08:53:53;5.80;;;1.73;;
68089;SDS011;54880;50.986;6.990;2023-04-15T08:56:18;5.67;;;1.90;;
68089;SDS011;54880;50.986;6.990;2023-04-15T08:58:48;9.93;;;1.98;;
68089;SDS011;54880;50.986;6.990;2023-04-15T09:01:14;7.70;;;2.10;;
68089;SDS011;54880;50.986;6.990;2023-04-15T09:03:40;8.10;;;2.00;;
68089;SDS011;54880;50.986;6.990;2023-04-15T09:06:06;9.98;;;2.15;;
68089;SDS011;54880;50.986;6.990;2023-04-15T09:08:31;7.37;;;2.00;;
68089;SDS011;54880;50.986;6.990;2023-04-15T09:10:58;11.32;;;2.00;;
68089;SDS011;54880;50.986;6.990;2023-04-15T09:13:23;8.90;;;2.00;;
68089;SDS011;54880;50.986;6.990;2023-04-15T09:15:49;8.98;;;2.22;;
68089;SDS011;54880;50.986;6.990;2023-04-15T09:18:25;6.33;;;2.20;;
68089;SDS011;54880;50.986;6.990;2023-04-15T09:20:51;7.22;;;2.22;;
68089;SDS011;54880;50.986;6.990;2023-04-15T09:23:17;7.30;;;2.13;;
68089;SDS011;54880;50.986;6.990;2023-04-15T09:25:42;9.20;;;2.10;;
68089;SDS011;54880;50.986;6.990;2023-04-15T09:28:07;9.63;;;2.10;;
68089;SDS011;54880;50.986;6.990;2023-04-15T09:30:33;6.63;;;2.33;;
68089;SDS011;54880;50.986;6.990;2023-04-15T09:32:59;6.82;;;2.50;;
68089;SDS011;54880;50.986;6.990;2023-04-15T09:35:26;9.00;;;2.40;;
68089;SDS011;54880;50.986;6.990;2023-04-15T09:37:52;5.38;;;1.70;;
68089;SDS011;54880;50.986;6.990;2023-04-15T09:40:30;7.20;;;2.23;;
68089;SDS011;54880;50.986;6.990;2023-04-15T09:42:56;6.90;;;1.90;;
68089;SDS011;54880;50.986;6.990;2023-04-15T09:45:22;7.47;;;1.87;;
68089;SDS011;54880;50.986;6.990;2023-04-15T09:47:47;8.73;;;1.92;;
68089;SDS011;54880;50.986;6.990;2023-04-15T09:50:13;6.80;;;2.40;;
68089;SDS011;54880;50.986;6.990;2023-04-15T09:52:42;13.07;;;2.20;;
68089;SDS011;54880;50.986;6.990;2023-04-15T09:55:08;7.30;;;2.15;;
68089;SDS011;54880;50.986;6.990;2023-04-15T09:57:37;6.47;;;2.53;;
68089;SDS011;54880;50.986;6.990;2023-04-15T10:00:06;8.27;;;3.20;;
68089;SDS011;54880;50.986;6.990;2023-04-15T10:02:32;6.63;;;3.00;;
68089;SDS011;54880;50.986;6.990;2023-04-15T10:04:57;10.20;;;2.85;;
68089;SDS011;54880;50.986;6.990;2023-04-15T10:07:23;10.60;;;3.20;;
68089;SDS011;54880;50.986;6.990;2023-04-15T10:09:49;7.30;;;2.70;;
68089;SDS011;54880;50.986;6.990;2023-04-15T10:12:18;6.00;;;2.87;;
68089;SDS011;54880;50.986;6.990;2023-04-15T10:14:43;6.63;;;2.92;;
68089;SDS011;54880;50.986;6.990;2023-04-15T10:17:11;7.20;;;2.87;;
68089;SDS011;54880;50.986;6.990;2023-04-15T10:19:37;7.50;;;3.25;;
68089;SDS011;54880;50.986;6.990;2023-04-15T10:22:03;7.90;;;3.20;;
68089;SDS011;54880;50.986;6.990;2023-04-15T10:24:31;6.80;;;2.90;;
68089;SDS011;54880;50.986;6.990;2023-04-15T10:26:57;9.40;;;3.10;;
68089;SDS011;54880;50.986;6.990;2023-04-15T10:29:26;7.53;;;2.65;;
68089;SDS011;54880;50.986;6.990;2023-04-15T10:31:53;7.03;;;2.85;;
68089;SDS011;54880;50.986;6.990;2023-04-15T10:34:18;6.43;;;3.00;;
68089;SDS011;54880;50.986;6.990;2023-04-15T10:36:44;7.60;;;3.33;;
68089;SDS011;54880;50.986;6.990;2023-04-15T10:39:37;7.65;;;3.00;;
68089;SDS011;54880;50.986;6.990;2023-04-15T10:42:06;11.80;;;2.80;;
68089;SDS011;54880;50.986;6.990;2023-04-15T10:44:31;6.77;;;2.70;;
68089;SDS011;54880;50.986;6.990;2023-04-15T10:46:57;7.70;;;3.00;;
68089;SDS011;54880;50.986;6.990;2023-04-15T10:49:25;7.25;;;2.80;;
68089;SDS011;54880;50.986;6.990;2023-04-15T10:51:52;8.13;;;3.33;;
68089;SDS011;54880;50.986;6.990;2023-04-15T10:56:50;8.00;;;3.30;;
68089;SDS011;54880;50.986;6.990;2023-04-15T10:59:15;6.80;;;3.20;;
68089;SDS011;54880;50.986;6.990;2023-04-15T11:01:53;8.67;;;2.90;;
68089;SDS011;54880;50.986;6.990;2023-04-15T11:04:49;8.15;;;3.20;;
68089;SDS011;54880;50.986;6.990;2023-04-15T11:07:13;9.67;;;3.23;;
68089;SDS011;54880;50.986;6.990;2023-04-15T11:09:38;6.72;;;3.13;;
68089;SDS011;54880;50.986;6.990;2023-04-15T11:12:04;6.90;;;3.00;;
68089;SDS011;54880;50.986;6.990;2023-04-15T11:14:31;6.30;;;2.90;;
68089;SDS011;54880;50.986;6.990;2023-04-15T11:16:57;7.25;;;3.45;;
68089;SDS011;54880;50.986;6.990;2023-04-15T11:19:23;6.97;;;2.73;;
68089;SDS011;54880;50.986;6.990;2023-04-15T11:21:48;6.87;;;2.50;;
68089;SDS011;54880;50.986;6.990;2023-04-15T11:24:22;6.70;;;2.73;;
68089;SDS011;54880;50.986;6.990;2023-04-15T11:26:55;6.25;;;2.58;;
68089;SDS011;54880;50.986;6.990;2023-04-15T11:29:21;5.35;;;2.33;;
68089;SDS011;54880;50.986;6.990;2023-04-15T11:31:47;6.53;;;2.43;;
68089;SDS011;54880;50.986;6.990;2023-04-15T11:34:19;6.20;;;2.53;;
68089;SDS011;54880;50.986;6.990;2023-04-15T11:36:46;5.70;;;2.45;;
68089;SDS011;54880;50.986;6.990;2023-04-15T11:39:12;5.50;;;2.60;;
68089;SDS011;54880;50.986;6.990;2023-04-15T11:41:37;6.03;;;2.50;;
68089;SDS011;54880;50.986;6.990;2023-04-15T11:44:14;7.55;;;2.67;;
68089;SDS011;54880;50.986;6.990;2023-04-15T11:46:40;6.20;;;2.40;;
68089;SDS011;54880;50.986;6.990;2023-04-15T11:49:05;6.33;;;2.73;;
68089;SDS011;54880;50.986;6.990;2023-04-15T11:51:31;6.17;;;2.53;;
68089;SDS011;54880;50.986;6.990;2023-04-15T11:53:56;6.60;;;3.13;;
68089;SDS011;54880;50.986;6.990;2023-04-15T11:56:24;6.88;;;2.83;;
68089;SDS011;54880;50.986;6.990;2023-04-15T11:58:53;6.90;;;3.40;;
68089;SDS011;54880;50.986;6.990;2023-04-15T12:01:29;6.65;;;3.60;;
68089;SDS011;54880;50.986;6.990;2023-04-15T12:03:54;9.20;;;3.63;;
68089;SDS011;54880;50.986;6.990;2023-04-15T12:06:21;6.68;;;3.70;;
68089;SDS011;54880;50.986;6.990;2023-04-15T12:11:13;8.30;;;5.10;;
68089;SDS011;54880;50.986;6.990;2023-04-15T12:13:42;9.40;;;5.30;;
68089;SDS011;54880;50.986;6.990;2023-04-15T12:16:07;10.15;;;5.90;;
68089;SDS011;54880;50.986;6.990;2023-04-15T12:18:33;7.97;;;4.97;;
68089;SDS011;54880;50.986;6.990;2023-04-15T12:21:03;8.57;;;4.93;;
68089;SDS011;54880;50.986;6.990;2023-04-15T12:23:29;9.18;;;5.38;;
68089;SDS011;54880;50.986;6.990;2023-04-15T12:25:54;9.50;;;5.30;;
68089;SDS011;54880;50.986;6.990;2023-04-15T12:28:19;8.67;;;5.30;;
68089;SDS011;54880;50.986;6.990;2023-04-15T12:30:49;9.07;;;5.77;;
68089;SDS011;54880;50.986;6.990;2023-04-15T12:33:17;11.48;;;6.47;;
68089;SDS011;54880;50.986;6.990;2023-04-15T12:35:42;9.33;;;6.40;;
68089;SDS011;54880;50.986;6.990;2023-04-15T12:38:08;10.33;;;6.20;;
68089;SDS011;54880;50.986;6.990;2023-04-15T12:40:34;8.60;;;5.65;;
68089;SDS011;54880;50.986;6.990;2023-04-15T12:43:00;9.70;;;6.80;;
68089;SDS011;54880;50.986;6.990;2023-04-15T12:45:25;10.00;;;6.43;;
68089;SDS011;54880;50.986;6.990;2023-04-15T12:47:51;9.30;;;6.00;;
68089;SDS011;54880;50.986;6.990;2023-04-15T12:50:16;10.07;;;6.63;;
68089;SDS011;54880;50.986;6.990;2023-04-15T12:52:42;8.27;;;5.35;;
68089;SDS011;54880;50.986;6.990;2023-04-15T12:55:07;11.93;;;6.13;;
68089;SDS011;54880;50.986;6.990;2023-04-15T12:57:33;9.23;;;6.03;;
68089;SDS011;54880;50.986;6.990;2023-04-15T12:59:58;8.47;;;4.57;;
68089;SDS011;54880;50.986;6.990;2023-04-15T13:02:23;8.87;;;5.63;;
68089;SDS011;54880;50.986;6.990;2023-04-15T13:04:51;8.52;;;5.93;;
68089;SDS011;54880;50.986;6.990;2023-04-15T13:07:16;9.40;;;6.23;;
68089;SDS011;54880;50.986;6.990;2023-04-15T13:09:41;9.50;;;5.20;;
68089;SDS011;54880;50.986;6.990;2023-04-15T13:12:06;8.63;;;5.07;;
68089;SDS011;54880;50.986;6.990;2023-04-15T13:14:32;9.23;;;5.63;;
68089;SDS011;54880;50.986;6.990;2023-04-15T13:16:58;10.00;;;5.63;;
68089;SDS011;54880;50.986;6.990;2023-04-15T13:19:23;10.60;;;6.22;;
68089;SDS011;54880;50.986;6.990;2023-04-15T13:21:48;9.47;;;5.67;;
68089;SDS011;54880;50.986;6.990;2023-04-15T13:24:13;9.83;;;5.47;;
68089;SDS011;54880;50.986;6.990;2023-04-15T13:26:39;8.60;;;5.47;;
68089;SDS011;54880;50.986;6.990;2023-04-15T13:29:04;10.30;;;5.70;;
68089;SDS011;54880;50.986;6.990;2023-04-15T13:31:29;9.90;;;6.10;;
68089;SDS011;54880;50.986;6.990;2023-04-15T13:33:55;9.40;;;6.03;;
68089;SDS011;54880;50.986;6.990;2023-04-15T13:36:21;9.95;;;6.22;;
68089;SDS011;54880;50.986;6.990;2023-04-15T13:38:46;9.73;;;5.50;;
68089;SDS011;54880;50.986;6.990;2023-04-15T13:41:11;9.27;;;5.63;;
68089;SDS011;54880;50.986;6.990;2023-04-15T13:43:37;8.87;;;5.30;;
68089;SDS011;54880;50.986;6.990;2023-04-15T13:46:02;9.60;;;4.70;;
68089;SDS011;54880;50.986;6.990;2023-04-15T13:48:27;8.80;;;4.70;;
68089;SDS011;54880;50.986;6.990;2023-04-15T13:50:53;12.33;;;5.50;;
68089;SDS011;54880;50.986;6.990;2023-04-15T13:53:18;9.73;;;5.67;;
68089;SDS011;54880;50.986;6.990;2023-04-15T13:55:43;10.40;;;5.80;;
68089;SDS011;54880;50.986;6.990;2023-04-15T13:58:08;9.50;;;5.20;;
68089;SDS011;54880;50.986;6.990;2023-04-15T14:00:34;7.30;;;3.23;;
68089;SDS011;54880;50.986;6.990;2023-04-15T14:02:59;6.63;;;2.80;;
68089;SDS011;54880;50.986;6.990;2023-04-15T14:05:24;7.03;;;3.10;;
68089;SDS011;54880;50.986;6.990;2023-04-15T14:07:50;10.00;;;3.40;;
68089;SDS011;54880;50.986;6.990;2023-04-15T14:10:15;7.83;;;3.47;;
68089;SDS011;54880;50.986;6.990;2023-04-15T14:12:40;7.77;;;3.37;;
68089;SDS011;54880;50.986;6.990;2023-04-15T14:15:06;7.47;;;3.83;;
68089;SDS011;54880;50.986;6.990;2023-04-15T14:17:31;7.27;;;4.00;;
68089;SDS011;54880;50.986;6.990;2023-04-15T14:19:57;7.95;;;4.25;;
68089;SDS011;54880;50.986;6.990;2023-04-15T14:22:22;7.73;;;3.50;;
68089;SDS011;54880;50.986;6.990;2023-04-15T14:24:47;8.10;;;3.93;;
68089;SDS011;54880;50.986;6.990;2023-04-15T14:27:13;6.90;;;3.57;;
68089;SDS011;54880;50.986;6.990;2023-04-15T14:29:38;7.00;;;3.00;;
68089;SDS011;54880;50.986;6.990;2023-04-15T14:32:04;8.33;;;3.47;;
68089;SDS011;54880;50.986;6.990;2023-04-15T14:34:29;7.47;;;3.40;;
68089;SDS011;54880;50.986;6.990;2023-04-15T14:36:55;7.40;;;3.30;;
68089;SDS011;54880;50.986;6.990;2023-04-15T14:39:21;9.20;;;4.00;;